Terminal Aerodrome Forecast
Issued by NWS

Home | Current Version | Previous Version | Text Only | Print | Product List | Glossary On
Versions: 1 2 3 4 5 6 7 8 9 10 11 12 13
000
FTUS43 KILX 201612 AAA
TAFBMI
TAF AMD
KBMI 201612Z 2016/2112 20010KT P6SM SCT250
     FM201800 19013G18KT P6SM SCT250
     FM210000 17012KT P6SM BKN250=

USA.gov is the U.S. government's official web portal to all federal, state and local government web resources and services.